sensor_id;sensor_type;location;lat;lon;timestamp;P1;durP1;ratioP1;P2;durP2;ratioP2
44078;SDS011;29744;49.078;12.878;2024-03-23T00:55:49;1.63;;;0.98;;
44078;SDS011;29744;49.078;12.878;2024-03-23T01:00:49;1.10;;;0.90;;
44078;SDS011;29744;49.078;12.878;2024-03-23T01:05:50;1.42;;;0.90;;
44078;SDS011;29744;49.078;12.878;2024-03-23T01:10:54;1.60;;;1.00;;
44078;SDS011;29744;49.078;12.878;2024-03-23T01:16:01;1.35;;;0.90;;
44078;SDS011;29744;49.078;12.878;2024-03-23T01:21:01;1.60;;;1.10;;
44078;SDS011;29744;49.078;12.878;2024-03-23T01:26:02;1.70;;;1.10;;
44078;SDS011;29744;49.078;12.878;2024-03-23T01:31:02;1.55;;;1.00;;
44078;SDS011;29744;49.078;12.878;2024-03-23T01:36:03;1.42;;;1.00;;
44078;SDS011;29744;49.078;12.878;2024-03-23T01:41:03;1.77;;;1.10;;
44078;SDS011;29744;49.078;12.878;2024-03-23T01:46:04;1.85;;;1.10;;
44078;SDS011;29744;49.078;12.878;2024-03-23T01:51:04;2.00;;;1.00;;
44078;SDS011;29744;49.078;12.878;2024-03-23T01:56:05;1.45;;;0.90;;
44078;SDS011;29744;49.078;12.878;2024-03-23T02:01:05;1.42;;;0.90;;
44078;SDS011;29744;49.078;12.878;2024-03-23T02:06:06;1.23;;;0.90;;
44078;SDS011;29744;49.078;12.878;2024-03-23T02:11:07;1.52;;;1.10;;
44078;SDS011;29744;49.078;12.878;2024-03-23T02:16:07;1.45;;;0.98;;
44078;SDS011;29744;49.078;12.878;2024-03-23T02:21:08;1.65;;;1.08;;
44078;SDS011;29744;49.078;12.878;2024-03-23T02:26:09;1.58;;;1.05;;
44078;SDS011;29744;49.078;12.878;2024-03-23T02:31:09;1.02;;;0.70;;
44078;SDS011;29744;49.078;12.878;2024-03-23T02:36:09;1.52;;;1.00;;
44078;SDS011;29744;49.078;12.878;2024-03-23T02:41:10;1.25;;;0.90;;
44078;SDS011;29744;49.078;12.878;2024-03-23T02:46:10;1.33;;;0.95;;
44078;SDS011;29744;49.078;12.878;2024-03-23T02:51:10;1.17;;;0.80;;
44078;SDS011;29744;49.078;12.878;2024-03-23T02:56:11;1.67;;;0.90;;
44078;SDS011;29744;49.078;12.878;2024-03-23T03:01:15;1.73;;;0.90;;
44078;SDS011;29744;49.078;12.878;2024-03-23T03:06:22;1.67;;;1.00;;
44078;SDS011;29744;49.078;12.878;2024-03-23T03:11:23;1.38;;;0.90;;
44078;SDS011;29744;49.078;12.878;2024-03-23T03:16:24;1.65;;;0.95;;
44078;SDS011;29744;49.078;12.878;2024-03-23T03:21:24;1.67;;;1.10;;
44078;SDS011;29744;49.078;12.878;2024-03-23T03:26:24;1.48;;;1.10;;
44078;SDS011;29744;49.078;12.878;2024-03-23T03:31:25;1.52;;;1.05;;
44078;SDS011;29744;49.078;12.878;2024-03-23T03:36:25;1.55;;;1.00;;
44078;SDS011;29744;49.078;12.878;2024-03-23T03:41:25;1.33;;;0.88;;
44078;SDS011;29744;49.078;12.878;2024-03-23T03:46:26;1.92;;;1.30;;
44078;SDS011;29744;49.078;12.878;2024-03-23T03:51:26;1.42;;;1.00;;
44078;SDS011;29744;49.078;12.878;2024-03-23T03:56:26;1.65;;;1.00;;
44078;SDS011;29744;49.078;12.878;2024-03-23T04:01:27;1.88;;;1.20;;
44078;SDS011;29744;49.078;12.878;2024-03-23T04:06:28;1.25;;;0.95;;
44078;SDS011;29744;49.078;12.878;2024-03-23T04:11:28;1.17;;;0.88;;
44078;SDS011;29744;49.078;12.878;2024-03-23T04:16:29;1.65;;;1.10;;
44078;SDS011;29744;49.078;12.878;2024-03-23T04:21:30;1.40;;;0.90;;
44078;SDS011;29744;49.078;12.878;2024-03-23T04:26:30;1.58;;;1.00;;
44078;SDS011;29744;49.078;12.878;2024-03-23T04:31:39;1.50;;;0.90;;
44078;SDS011;29744;49.078;12.878;2024-03-23T04:36:40;1.52;;;0.93;;
44078;SDS011;29744;49.078;12.878;2024-03-23T04:41:40;1.40;;;1.00;;
44078;SDS011;29744;49.078;12.878;2024-03-23T04:46:40;1.48;;;0.90;;
44078;SDS011;29744;49.078;12.878;2024-03-23T04:51:41;1.52;;;1.00;;
44078;SDS011;29744;49.078;12.878;2024-03-23T04:56:45;1.40;;;1.00;;
44078;SDS011;29744;49.078;12.878;2024-03-23T05:01:46;1.85;;;1.00;;
44078;SDS011;29744;49.078;12.878;2024-03-23T05:06:46;1.35;;;0.90;;
44078;SDS011;29744;49.078;12.878;2024-03-23T05:11:47;1.70;;;1.08;;
44078;SDS011;29744;49.078;12.878;2024-03-23T05:16:47;1.17;;;0.80;;
44078;SDS011;29744;49.078;12.878;2024-03-23T05:21:47;1.30;;;0.90;;
44078;SDS011;29744;49.078;12.878;2024-03-23T05:26:47;1.40;;;1.00;;
44078;SDS011;29744;49.078;12.878;2024-03-23T05:31:49;1.67;;;1.00;;
44078;SDS011;29744;49.078;12.878;2024-03-23T05:36:50;1.08;;;0.88;;
44078;SDS011;29744;49.078;12.878;2024-03-23T05:41:51;0.80;;;0.75;;
44078;SDS011;29744;49.078;12.878;2024-03-23T05:46:51;1.10;;;0.80;;
44078;SDS011;29744;49.078;12.878;2024-03-23T05:51:51;1.77;;;0.98;;
44078;SDS011;29744;49.078;12.878;2024-03-23T05:56:54;1.08;;;0.80;;
44078;SDS011;29744;49.078;12.878;2024-03-23T06:01:55;1.38;;;0.95;;
44078;SDS011;29744;49.078;12.878;2024-03-23T06:06:55;1.40;;;0.90;;
44078;SDS011;29744;49.078;12.878;2024-03-23T06:11:57;1.10;;;0.90;;
44078;SDS011;29744;49.078;12.878;2024-03-23T06:16:58;1.05;;;0.80;;
44078;SDS011;29744;49.078;12.878;2024-03-23T06:21:59;0.82;;;0.75;;
44078;SDS011;29744;49.078;12.878;2024-03-23T06:26:59;1.22;;;0.90;;
44078;SDS011;29744;49.078;12.878;2024-03-23T06:31:59;1.35;;;0.90;;
44078;SDS011;29744;49.078;12.878;2024-03-23T06:37:00;1.44;;;0.84;;
44078;SDS011;29744;49.078;12.878;2024-03-23T06:42:00;0.88;;;0.80;;
44078;SDS011;29744;49.078;12.878;2024-03-23T06:47:00;0.95;;;0.90;;
44078;SDS011;29744;49.078;12.878;2024-03-23T06:52:01;1.38;;;0.80;;
44078;SDS011;29744;49.078;12.878;2024-03-23T06:57:01;1.20;;;0.80;;
44078;SDS011;29744;49.078;12.878;2024-03-23T07:02:01;0.82;;;0.80;;
44078;SDS011;29744;49.078;12.878;2024-03-23T07:07:02;1.35;;;0.90;;
44078;SDS011;29744;49.078;12.878;2024-03-23T07:12:02;1.08;;;0.80;;
44078;SDS011;29744;49.078;12.878;2024-03-23T07:17:03;1.40;;;0.80;;
44078;SDS011;29744;49.078;12.878;2024-03-23T07:22:03;0.82;;;0.77;;
44078;SDS011;29744;49.078;12.878;2024-03-23T07:27:04;1.33;;;0.75;;
44078;SDS011;29744;49.078;12.878;2024-03-23T07:32:05;0.93;;;0.73;;
44078;SDS011;29744;49.078;12.878;2024-03-23T07:37:05;1.23;;;0.85;;
44078;SDS011;29744;49.078;12.878;2024-03-23T07:42:06;1.45;;;0.95;;
44078;SDS011;29744;49.078;12.878;2024-03-23T07:47:06;1.20;;;0.80;;
44078;SDS011;29744;49.078;12.878;2024-03-23T07:52:07;1.40;;;0.80;;
44078;SDS011;29744;49.078;12.878;2024-03-23T07:57:08;0.75;;;0.70;;
44078;SDS011;29744;49.078;12.878;2024-03-23T08:02:08;1.33;;;0.82;;
44078;SDS011;29744;49.078;12.878;2024-03-23T08:07:09;0.80;;;0.70;;
44078;SDS011;29744;49.078;12.878;2024-03-23T08:12:09;0.75;;;0.65;;
44078;SDS011;29744;49.078;12.878;2024-03-23T08:17:09;1.22;;;0.92;;
44078;SDS011;29744;49.078;12.878;2024-03-23T08:22:10;1.25;;;0.90;;
44078;SDS011;29744;49.078;12.878;2024-03-23T08:27:10;0.80;;;0.68;;
44078;SDS011;29744;49.078;12.878;2024-03-23T08:32:10;1.45;;;0.80;;
44078;SDS011;29744;49.078;12.878;2024-03-23T08:37:12;1.55;;;0.90;;
44078;SDS011;29744;49.078;12.878;2024-03-23T08:42:12;1.10;;;0.80;;
44078;SDS011;29744;49.078;12.878;2024-03-23T08:47:12;1.55;;;0.90;;
44078;SDS011;29744;49.078;12.878;2024-03-23T08:52:13;0.85;;;0.77;;
44078;SDS011;29744;49.078;12.878;2024-03-23T08:57:13;1.17;;;0.73;;
44078;SDS011;29744;49.078;12.878;2024-03-23T09:02:13;0.80;;;0.70;;
44078;SDS011;29744;49.078;12.878;2024-03-23T09:07:13;0.82;;;0.70;;
44078;SDS011;29744;49.078;12.878;2024-03-23T09:12:14;1.13;;;0.80;;
44078;SDS011;29744;49.078;12.878;2024-03-23T09:17:14;1.02;;;0.80;;
44078;SDS011;29744;49.078;12.878;2024-03-23T09:22:14;1.20;;;0.80;;
44078;SDS011;29744;49.078;12.878;2024-03-23T09:27:15;1.35;;;0.80;;
44078;SDS011;29744;49.078;12.878;2024-03-23T09:32:15;1.38;;;0.95;;
44078;SDS011;29744;49.078;12.878;2024-03-23T09:37:16;1.08;;;0.88;;
44078;SDS011;29744;49.078;12.878;2024-03-23T09:42:16;0.77;;;0.68;;
44078;SDS011;29744;49.078;12.878;2024-03-23T09:47:16;0.95;;;0.75;;
44078;SDS011;29744;49.078;12.878;2024-03-23T09:52:18;0.85;;;0.75;;
44078;SDS011;29744;49.078;12.878;2024-03-23T09:57:18;0.88;;;0.70;;
44078;SDS011;29744;49.078;12.878;2024-03-23T10:02:19;1.40;;;0.90;;
44078;SDS011;29744;49.078;12.878;2024-03-23T10:07:20;0.82;;;0.70;;
44078;SDS011;29744;49.078;12.878;2024-03-23T10:12:24;0.95;;;0.70;;
44078;SDS011;29744;49.078;12.878;2024-03-23T10:17:24;1.15;;;0.82;;
44078;SDS011;29744;49.078;12.878;2024-03-23T10:22:25;1.30;;;0.90;;
44078;SDS011;29744;49.078;12.878;2024-03-23T10:27:25;1.20;;;0.80;;
44078;SDS011;29744;49.078;12.878;2024-03-23T10:32:26;1.50;;;0.90;;
44078;SDS011;29744;49.078;12.878;2024-03-23T10:37:27;1.08;;;0.77;;
44078;SDS011;29744;49.078;12.878;2024-03-23T10:42:27;1.33;;;0.80;;
44078;SDS011;29744;49.078;12.878;2024-03-23T10:47:28;0.75;;;0.70;;
44078;SDS011;29744;49.078;12.878;2024-03-23T10:52:29;0.80;;;0.70;;
44078;SDS011;29744;49.078;12.878;2024-03-23T10:57:31;1.45;;;0.82;;
44078;SDS011;29744;49.078;12.878;2024-03-23T11:02:37;1.10;;;0.80;;
44078;SDS011;29744;49.078;12.878;2024-03-23T11:07:37;1.15;;;0.90;;
44078;SDS011;29744;49.078;12.878;2024-03-23T11:12:38;1.10;;;0.85;;
44078;SDS011;29744;49.078;12.878;2024-03-23T11:17:38;1.00;;;0.80;;
44078;SDS011;29744;49.078;12.878;2024-03-23T11:27:40;1.20;;;0.80;;
44078;SDS011;29744;49.078;12.878;2024-03-23T11:32:41;0.77;;;0.73;;
44078;SDS011;29744;49.078;12.878;2024-03-23T11:37:42;1.08;;;0.73;;
44078;SDS011;29744;49.078;12.878;2024-03-23T11:42:42;2.05;;;0.75;;
44078;SDS011;29744;49.078;12.878;2024-03-23T11:47:43;1.17;;;0.80;;
44078;SDS011;29744;49.078;12.878;2024-03-23T11:52:43;1.35;;;0.90;;
44078;SDS011;29744;49.078;12.878;2024-03-23T11:57:44;1.05;;;0.73;;
44078;SDS011;29744;49.078;12.878;2024-03-23T12:02:44;0.80;;;0.60;;
44078;SDS011;29744;49.078;12.878;2024-03-23T12:07:44;1.05;;;0.80;;
44078;SDS011;29744;49.078;12.878;2024-03-23T12:12:45;1.20;;;0.73;;
44078;SDS011;29744;49.078;12.878;2024-03-23T12:17:45;1.38;;;0.80;;
44078;SDS011;29744;49.078;12.878;2024-03-23T12:22:45;1.85;;;0.88;;
44078;SDS011;29744;49.078;12.878;2024-03-23T12:27:46;1.85;;;0.80;;
44078;SDS011;29744;49.078;12.878;2024-03-23T12:32:47;1.17;;;0.70;;
44078;SDS011;29744;49.078;12.878;2024-03-23T12:37:47;0.95;;;0.70;;
44078;SDS011;29744;49.078;12.878;2024-03-23T12:42:47;1.67;;;0.82;;
44078;SDS011;29744;49.078;12.878;2024-03-23T12:47:48;1.88;;;0.90;;
44078;SDS011;29744;49.078;12.878;2024-03-23T12:52:48;1.40;;;0.70;;
44078;SDS011;29744;49.078;12.878;2024-03-23T12:57:49;2.88;;;0.85;;
44078;SDS011;29744;49.078;12.878;2024-03-23T13:02:49;2.17;;;1.00;;
44078;SDS011;29744;49.078;12.878;2024-03-23T13:07:49;0.93;;;0.75;;
44078;SDS011;29744;49.078;12.878;2024-03-23T13:12:50;0.90;;;0.70;;
44078;SDS011;29744;49.078;12.878;2024-03-23T13:17:50;2.25;;;0.95;;
44078;SDS011;29744;49.078;12.878;2024-03-23T13:22:52;1.25;;;0.88;;
44078;SDS011;29744;49.078;12.878;2024-03-23T13:27:52;1.27;;;0.70;;
44078;SDS011;29744;49.078;12.878;2024-03-23T13:32:53;1.98;;;0.82;;
44078;SDS011;29744;49.078;12.878;2024-03-23T13:37:53;0.68;;;0.60;;
44078;SDS011;29744;49.078;12.878;2024-03-23T13:42:53;0.88;;;0.68;;
44078;SDS011;29744;49.078;12.878;2024-03-23T13:47:54;1.65;;;0.90;;
44078;SDS011;29744;49.078;12.878;2024-03-23T13:52:54;1.02;;;0.75;;
44078;SDS011;29744;49.078;12.878;2024-03-23T13:57:54;1.58;;;0.82;;
44078;SDS011;29744;49.078;12.878;2024-03-23T14:02:55;1.27;;;0.75;;
44078;SDS011;29744;49.078;12.878;2024-03-23T14:07:55;1.65;;;0.70;;
44078;SDS011;29744;49.078;12.878;2024-03-23T14:12:55;0.80;;;0.60;;
44078;SDS011;29744;49.078;12.878;2024-03-23T14:17:56;0.90;;;0.60;;
44078;SDS011;29744;49.078;12.878;2024-03-23T14:22:56;0.50;;;0.50;;
44078;SDS011;29744;49.078;12.878;2024-03-23T14:27:57;1.20;;;0.70;;
44078;SDS011;29744;49.078;12.878;2024-03-23T14:32:58;0.80;;;0.60;;
44078;SDS011;29744;49.078;12.878;2024-03-23T14:37:58;0.50;;;0.50;;
44078;SDS011;29744;49.078;12.878;2024-03-23T14:42:59;0.82;;;0.70;;
44078;SDS011;29744;49.078;12.878;2024-03-23T14:47:59;3.15;;;0.80;;
44078;SDS011;29744;49.078;12.878;2024-03-23T14:53:00;1.23;;;0.73;;
44078;SDS011;29744;49.078;12.878;2024-03-23T14:58:01;0.82;;;0.55;;
44078;SDS011;29744;49.078;12.878;2024-03-23T15:03:01;1.70;;;0.60;;
44078;SDS011;29744;49.078;12.878;2024-03-23T15:08:02;1.55;;;0.80;;
44078;SDS011;29744;49.078;12.878;2024-03-23T15:13:03;0.80;;;0.60;;
44078;SDS011;29744;49.078;12.878;2024-03-23T15:18:04;0.80;;;0.68;;
44078;SDS011;29744;49.078;12.878;2024-03-23T15:23:04;1.23;;;0.73;;
44078;SDS011;29744;49.078;12.878;2024-03-23T15:28:05;1.00;;;0.63;;
44078;SDS011;29744;49.078;12.878;2024-03-23T15:33:05;0.90;;;0.60;;
44078;SDS011;29744;49.078;12.878;2024-03-23T15:38:06;0.98;;;0.68;;
44078;SDS011;29744;49.078;12.878;2024-03-23T15:43:06;1.33;;;0.60;;
44078;SDS011;29744;49.078;12.878;2024-03-23T15:48:07;1.27;;;0.68;;
44078;SDS011;29744;49.078;12.878;2024-03-23T15:53:08;0.80;;;0.60;;
44078;SDS011;29744;49.078;12.878;2024-03-23T15:58:08;1.33;;;0.60;;
44078;SDS011;29744;49.078;12.878;2024-03-23T16:03:08;1.48;;;0.70;;
44078;SDS011;29744;49.078;12.878;2024-03-23T16:08:08;0.88;;;0.60;;
44078;SDS011;29744;49.078;12.878;2024-03-23T16:13:09;0.80;;;0.60;;
44078;SDS011;29744;49.078;12.878;2024-03-23T16:18:09;0.60;;;0.60;;
44078;SDS011;29744;49.078;12.878;2024-03-23T16:23:10;1.20;;;0.68;;
44078;SDS011;29744;49.078;12.878;2024-03-23T16:28:10;0.75;;;0.60;;
44078;SDS011;29744;49.078;12.878;2024-03-23T16:33:10;1.63;;;0.70;;
44078;SDS011;29744;49.078;12.878;2024-03-23T16:38:11;0.93;;;0.60;;
44078;SDS011;29744;49.078;12.878;2024-03-23T16:43:13;1.73;;;0.55;;
44078;SDS011;29744;49.078;12.878;2024-03-23T16:48:13;0.65;;;0.50;;
44078;SDS011;29744;49.078;12.878;2024-03-23T16:53:13;0.93;;;0.68;;
44078;SDS011;29744;49.078;12.878;2024-03-23T16:58:14;0.65;;;0.50;;
44078;SDS011;29744;49.078;12.878;2024-03-23T17:03:14;1.00;;;0.60;;
44078;SDS011;29744;49.078;12.878;2024-03-23T17:08:15;0.60;;;0.50;;
44078;SDS011;29744;49.078;12.878;2024-03-23T17:13:15;0.68;;;0.50;;
44078;SDS011;29744;49.078;12.878;2024-03-23T17:18:15;0.70;;;0.60;;
44078;SDS011;29744;49.078;12.878;2024-03-23T17:23:22;0.52;;;0.50;;
44078;SDS011;29744;49.078;12.878;2024-03-23T17:28:26;1.02;;;0.63;;
44078;SDS011;29744;49.078;12.878;2024-03-23T17:33:26;0.85;;;0.60;;
44078;SDS011;29744;49.078;12.878;2024-03-23T17:38:27;0.47;;;0.43;;
44078;SDS011;29744;49.078;12.878;2024-03-23T17:43:27;1.02;;;0.50;;
44078;SDS011;29744;49.078;12.878;2024-03-23T17:48:28;0.68;;;0.60;;
44078;SDS011;29744;49.078;12.878;2024-03-23T17:53:28;0.80;;;0.50;;
44078;SDS011;29744;49.078;12.878;2024-03-23T17:58:28;0.70;;;0.50;;
44078;SDS011;29744;49.078;12.878;2024-03-23T18:03:29;0.85;;;0.60;;
44078;SDS011;29744;49.078;12.878;2024-03-23T18:08:29;0.57;;;0.50;;
44078;SDS011;29744;49.078;12.878;2024-03-23T18:13:29;0.50;;;0.50;;
44078;SDS011;29744;49.078;12.878;2024-03-23T18:18:30;0.73;;;0.50;;
44078;SDS011;29744;49.078;12.878;2024-03-23T18:23:30;0.52;;;0.45;;
44078;SDS011;29744;49.078;12.878;2024-03-23T18:28:31;0.88;;;0.60;;
44078;SDS011;29744;49.078;12.878;2024-03-23T18:33:32;0.56;;;0.40;;
44078;SDS011;29744;49.078;12.878;2024-03-23T18:38:36;0.55;;;0.43;;
44078;SDS011;29744;49.078;12.878;2024-03-23T18:43:36;0.73;;;0.57;;
44078;SDS011;29744;49.078;12.878;2024-03-23T18:48:37;0.73;;;0.60;;
44078;SDS011;29744;49.078;12.878;2024-03-23T18:53:37;0.90;;;0.52;;
44078;SDS011;29744;49.078;12.878;2024-03-23T18:58:38;1.00;;;0.60;;
44078;SDS011;29744;49.078;12.878;2024-03-23T19:03:38;0.52;;;0.50;;
44078;SDS011;29744;49.078;12.878;2024-03-23T19:08:39;1.60;;;0.88;;
44078;SDS011;29744;49.078;12.878;2024-03-23T19:13:39;1.00;;;0.55;;
44078;SDS011;29744;49.078;12.878;2024-03-23T19:18:39;0.80;;;0.50;;
44078;SDS011;29744;49.078;12.878;2024-03-23T19:23:40;0.70;;;0.43;;
44078;SDS011;29744;49.078;12.878;2024-03-23T19:28:40;0.60;;;0.50;;
44078;SDS011;29744;49.078;12.878;2024-03-23T19:33:40;0.90;;;0.60;;
44078;SDS011;29744;49.078;12.878;2024-03-23T19:38:41;0.68;;;0.50;;
44078;SDS011;29744;49.078;12.878;2024-03-23T19:43:41;0.60;;;0.45;;
44078;SDS011;29744;49.078;12.878;2024-03-23T19:48:42;0.80;;;0.50;;
44078;SDS011;29744;49.078;12.878;2024-03-23T19:53:42;0.40;;;0.40;;
44078;SDS011;29744;49.078;12.878;2024-03-23T19:58:43;0.77;;;0.50;;
44078;SDS011;29744;49.078;12.878;2024-03-23T20:03:46;0.90;;;0.50;;
44078;SDS011;29744;49.078;12.878;2024-03-23T20:08:50;0.53;;;0.43;;
44078;SDS011;29744;49.078;12.878;2024-03-23T20:13:50;0.68;;;0.45;;
44078;SDS011;29744;49.078;12.878;2024-03-23T20:18:54;0.70;;;0.50;;
44078;SDS011;29744;49.078;12.878;2024-03-23T20:23:54;0.52;;;0.50;;
44078;SDS011;29744;49.078;12.878;2024-03-23T20:28:55;0.45;;;0.45;;
44078;SDS011;29744;49.078;12.878;2024-03-23T20:33:55;0.90;;;0.60;;
44078;SDS011;29744;49.078;12.878;2024-03-23T20:38:57;0.95;;;0.50;;
44078;SDS011;29744;49.078;12.878;2024-03-23T20:43:57;0.40;;;0.40;;
44078;SDS011;29744;49.078;12.878;2024-03-23T20:48:57;0.75;;;0.52;;
44078;SDS011;29744;49.078;12.878;2024-03-23T20:53:59;0.55;;;0.45;;
44078;SDS011;29744;49.078;12.878;2024-03-23T20:58:59;0.55;;;0.40;;
44078;SDS011;29744;49.078;12.878;2024-03-23T21:03:59;0.45;;;0.43;;
44078;SDS011;29744;49.078;12.878;2024-03-23T21:09:00;0.50;;;0.40;;
44078;SDS011;29744;49.078;12.878;2024-03-23T21:14:00;0.30;;;0.30;;
44078;SDS011;29744;49.078;12.878;2024-03-23T21:19:00;0.63;;;0.43;;
44078;SDS011;29744;49.078;12.878;2024-03-23T21:24:01;0.60;;;0.50;;
44078;SDS011;29744;49.078;12.878;2024-03-23T21:29:02;0.88;;;0.45;;
44078;SDS011;29744;49.078;12.878;2024-03-23T21:34:02;0.42;;;0.40;;
44078;SDS011;29744;49.078;12.878;2024-03-23T21:39:03;0.93;;;0.50;;
44078;SDS011;29744;49.078;12.878;2024-03-23T21:44:07;0.68;;;0.40;;
44078;SDS011;29744;49.078;12.878;2024-03-23T21:49:07;0.85;;;0.40;;
44078;SDS011;29744;49.078;12.878;2024-03-23T21:54:07;0.60;;;0.50;;
44078;SDS011;29744;49.078;12.878;2024-03-23T21:59:08;0.40;;;0.40;;
44078;SDS011;29744;49.078;12.878;2024-03-23T22:04:09;0.45;;;0.40;;
44078;SDS011;29744;49.078;12.878;2024-03-23T22:09:10;0.65;;;0.40;;
44078;SDS011;29744;49.078;12.878;2024-03-23T22:14:10;0.54;;;0.44;;
44078;SDS011;29744;49.078;12.878;2024-03-23T22:19:11;0.50;;;0.50;;
44078;SDS011;29744;49.078;12.878;2024-03-23T22:24:11;0.50;;;0.40;;
44078;SDS011;29744;49.078;12.878;2024-03-23T22:29:11;0.60;;;0.40;;
44078;SDS011;29744;49.078;12.878;2024-03-23T22:34:12;0.35;;;0.35;;
44078;SDS011;29744;49.078;12.878;2024-03-23T22:39:12;0.50;;;0.30;;
44078;SDS011;29744;49.078;12.878;2024-03-23T22:44:14;0.45;;;0.40;;
44078;SDS011;29744;49.078;12.878;2024-03-23T22:49:15;0.98;;;0.50;;
44078;SDS011;29744;49.078;12.878;2024-03-23T22:54:15;0.52;;;0.40;;
44078;SDS011;29744;49.078;12.878;2024-03-23T22:59:15;0.50;;;0.40;;
44078;SDS011;29744;49.078;12.878;2024-03-23T23:04:16;0.55;;;0.40;;
44078;SDS011;29744;49.078;12.878;2024-03-23T23:09:17;0.45;;;0.40;;
44078;SDS011;29744;49.078;12.878;2024-03-23T23:14:17;1.13;;;0.40;;
44078;SDS011;29744;49.078;12.878;2024-03-23T23:19:17;0.88;;;0.58;;
44078;SDS011;29744;49.078;12.878;2024-03-23T23:24:18;0.60;;;0.43;;
44078;SDS011;29744;49.078;12.878;2024-03-23T23:29:19;0.34;;;0.30;;
44078;SDS011;29744;49.078;12.878;2024-03-23T23:34:19;0.30;;;0.30;;
44078;SDS011;29744;49.078;12.878;2024-03-23T23:39:19;0.68;;;0.50;;
44078;SDS011;29744;49.078;12.878;2024-03-23T23:44:20;0.52;;;0.35;;
44078;SDS011;29744;49.078;12.878;2024-03-23T23:49:21;0.40;;;0.40;;
44078;SDS011;29744;49.078;12.878;2024-03-23T23:54:21;0.34;;;0.30;;
44078;SDS011;29744;49.078;12.878;2024-03-23T23:59:21;0.40;;;0.30;;
